Time;durP1;ratioP1;P1;durP2;ratioP2;P2;SDS_P1;SDS_P2;PMS_P1;PMS_P2;Temp;Humidity;BMP_temperature;BMP_pressure;BME280_temperature;BME280_humidity;BME280_pressure;Samples;Min_cycle;Max_cycle;Signal;HPM_P1;HPM_P2
2023/11/02 00:00:35;;;;;;;2.20;1.17;;;10.70;99.90;;;;;;5034680;28;20406;-74
2023/11/02 00:03:05;;;;;;;1.53;1.10;;;10.60;99.90;;;;;;5034331;28;20449;-73
2023/11/02 00:05:55;;;;;;;2.57;1.37;;;10.50;99.90;;;;;;5034840;28;20459;-73
2023/11/02 00:08:23;;;;;;;1.73;1.00;;;10.50;99.90;;;;;;5034389;28;20395;-73
2023/11/02 00:10:49;;;;;;;2.70;1.10;;;10.50;99.90;;;;;;5034442;28;20750;-74
2023/11/02 00:13:25;;;;;;;2.10;1.53;;;10.50;99.90;;;;;;5034484;28;20414;-74
2023/11/02 00:15:51;;;;;;;1.70;1.07;;;10.40;99.90;;;;;;5034624;28;20161;-73
2023/11/02 00:18:17;;;;;;;1.63;1.23;;;10.40;99.90;;;;;;5034860;28;20766;-74
2023/11/02 00:20:42;;;;;;;2.07;1.40;;;10.50;99.90;;;;;;5034849;28;20251;-73
2023/11/02 00:23:11;;;;;;;3.00;1.27;;;10.50;99.90;;;;;;5034395;28;20288;-73
2023/11/02 00:25:49;;;;;;;1.50;1.30;;;10.50;99.90;;;;;;5034633;28;20163;-73
2023/11/02 00:28:15;;;;;;;1.43;1.00;;;10.50;99.90;;;;;;5034452;28;20399;-73
2023/11/02 00:30:44;;;;;;;1.80;0.90;;;10.40;99.90;;;;;;5016943;28;20464;-73
2023/11/02 00:33:10;;;;;;;2.20;1.30;;;10.40;99.90;;;;;;5034500;28;20582;-73
2023/11/02 00:35:46;;;;;;;2.50;1.30;;;10.50;99.90;;;;;;5034345;28;20440;-73
2023/11/02 00:38:23;;;;;;;1.37;1.00;;;10.50;99.90;;;;;;5034481;28;20874;-73
2023/11/02 00:40:49;;;;;;;2.73;1.30;;;10.50;99.90;;;;;;5033974;28;20412;-75
2023/11/02 00:43:16;;;;;;;1.50;1.00;;;10.40;99.90;;;;;;5032149;28;20479;-74
2023/11/02 00:45:42;;;;;;;1.90;1.40;;;10.40;99.90;;;;;;5016137;28;20442;-72
2023/11/02 00:48:21;;;;;;;1.20;1.10;;;10.40;99.90;;;;;;5033848;28;20436;-72
2023/11/02 00:51:04;;;;;;;2.53;1.00;;;10.40;99.90;;;;;;5034174;28;20148;-73
2023/11/02 00:53:30;;;;;;;1.53;1.10;;;10.30;99.90;;;;;;5034148;28;20455;-72
2023/11/02 00:55:55;;;;;;;2.03;1.00;;;10.40;99.90;;;;;;5033597;28;20401;-72
2023/11/02 00:58:28;;;;;;;1.20;0.97;;;10.40;99.90;;;;;;5033512;28;20242;-72
2023/11/02 01:00:54;;;;;;;1.43;1.20;;;10.40;99.90;;;;;;5033794;28;20151;-72
2023/11/02 01:03:20;;;;;;;1.63;1.17;;;10.50;99.90;;;;;;5033707;28;20507;-72
2023/11/02 01:05:46;;;;;;;1.30;1.00;;;10.40;99.90;;;;;;5033701;28;20544;-73
2023/11/02 01:08:13;;;;;;;1.90;1.20;;;10.50;99.90;;;;;;5033735;28;20398;-72
2023/11/02 01:10:40;;;;;;;3.50;0.93;;;10.60;99.90;;;;;;5034159;28;20167;-72
2023/11/02 01:13:13;;;;;;;2.57;1.43;;;10.70;99.90;;;;;;5033469;28;20438;-72
2023/11/02 01:15:44;;;;;;;2.33;1.40;;;10.80;99.90;;;;;;5034102;28;20507;-73
2023/11/02 01:18:11;;;;;;;1.83;1.13;;;10.80;99.90;;;;;;5033377;28;20492;-72
2023/11/02 01:20:39;;;;;;;3.10;1.47;;;10.80;99.90;;;;;;5033244;28;20416;-72
2023/11/02 01:23:12;;;;;;;1.90;1.13;;;10.70;99.90;;;;;;5033365;28;20525;-73
2023/11/02 01:25:41;;;;;;;4.00;1.60;;;10.60;99.90;;;;;;5033285;28;20464;-73
2023/11/02 01:28:07;;;;;;;1.33;1.10;;;10.60;99.90;;;;;;5033134;28;20438;-73
2023/11/02 01:30:36;;;;;;;1.97;1.00;;;10.60;99.90;;;;;;5033209;28;20410;-73
2023/11/02 01:33:07;;;;;;;1.30;1.07;;;10.60;99.90;;;;;;5015342;28;20441;-73
2023/11/02 01:35:44;;;;;;;1.93;1.10;;;10.50;99.90;;;;;;5033018;28;20398;-73
2023/11/02 01:38:14;;;;;;;1.97;1.20;;;10.50;99.90;;;;;;5033324;28;20402;-73
2023/11/02 01:40:49;;;;;;;2.80;1.00;;;10.50;99.90;;;;;;5032933;28;20425;-73
2023/11/02 01:43:26;;;;;;;1.40;1.20;;;10.50;99.90;;;;;;5033179;28;20948;-73
2023/11/02 01:45:55;;;;;;;1.37;1.07;;;10.60;99.90;;;;;;5033175;28;20387;-73
2023/11/02 01:48:34;;;;;;;1.70;1.40;;;10.60;99.90;;;;;;5032887;28;20455;-73
2023/11/02 01:51:14;;;;;;;1.67;1.57;;;10.70;99.90;;;;;;5032880;28;20389;-72
2023/11/02 01:53:44;;;;;;;4.90;1.43;;;10.70;99.90;;;;;;5033048;28;20394;-73
2023/11/02 01:56:35;;;;;;;1.70;1.20;;;10.70;99.90;;;;;;5032126;28;20844;-73
2023/11/02 01:59:17;;;;;;;1.50;1.10;;;10.70;99.90;;;;;;5032936;28;20401;-72
2023/11/02 02:01:55;;;;;;;2.80;1.60;;;10.60;99.90;;;;;;5032894;28;20433;-73
2023/11/02 02:04:48;;;;;;;2.40;0.93;;;10.70;99.90;;;;;;5033183;28;20568;-73
2023/11/02 02:07:20;;;;;;;1.93;1.53;;;10.70;99.90;;;;;;5032444;28;20476;-73
2023/11/02 02:09:56;;;;;;;1.80;1.63;;;10.70;99.90;;;;;;5032223;28;20453;-73
2023/11/02 02:12:27;;;;;;;2.03;1.30;;;10.70;99.90;;;;;;5032751;28;20527;-73
2023/11/02 02:15:15;;;;;;;2.20;1.27;;;10.80;99.90;;;;;;5033189;28;20454;-73
2023/11/02 02:18:06;;;;;;;2.07;1.27;;;10.80;99.90;;;;;;5032768;28;20398;-73
2023/11/02 02:20:34;;;;;;;1.30;1.20;;;10.90;99.90;;;;;;5013245;28;20415;-73
2023/11/02 02:23:06;;;;;;;1.70;1.10;;;10.80;99.90;;;;;;5014373;28;20443;-70
2023/11/02 02:25:42;;;;;;;2.60;1.40;;;10.90;99.90;;;;;;5012945;28;20406;-70
2023/11/02 02:29:02;;;;;;;2.43;1.30;;;10.90;99.90;;;;;;5015218;28;21092;-70
2023/11/02 02:32:02;;;;;;;1.70;1.40;;;10.90;99.90;;;;;;4933240;29;20423;-71
2023/11/02 02:34:53;;;;;;;1.87;1.47;;;11.00;99.90;;;;;;5032553;28;20393;-70
2023/11/02 02:37:33;;;;;;;2.10;1.23;;;11.00;99.90;;;;;;5032246;28;20428;-70
2023/11/02 02:40:06;;;;;;;3.30;1.73;;;11.00;99.90;;;;;;5031822;28;20390;-69
2023/11/02 02:42:35;;;;;;;2.00;1.50;;;11.10;99.90;;;;;;5014032;28;20591;-70
2023/11/02 02:45:10;;;;;;;3.73;1.63;;;11.00;99.90;;;;;;5031833;28;20491;-69
2023/11/02 02:47:40;;;;;;;1.70;1.30;;;11.10;99.90;;;;;;5032025;28;20510;-69
2023/11/02 02:50:13;;;;;;;4.03;1.60;;;11.00;99.90;;;;;;5031743;28;20916;-69
2023/11/02 02:52:41;;;;;;;2.40;1.43;;;11.00;99.90;;;;;;5031976;28;20835;-70
2023/11/02 02:55:11;;;;;;;2.23;1.40;;;11.00;99.90;;;;;;5032139;28;20754;-70
2023/11/02 02:57:45;;;;;;;2.33;1.40;;;11.00;99.90;;;;;;5032015;28;20409;-70
2023/11/02 03:00:14;;;;;;;1.43;1.30;;;10.90;99.90;;;;;;5031744;28;20406;-69
2023/11/02 03:02:41;;;;;;;3.20;1.90;;;10.80;99.90;;;;;;5031816;28;20431;-70
2023/11/02 03:05:11;;;;;;;1.60;1.50;;;10.90;99.90;;;;;;5031711;28;20925;-69
2023/11/02 03:07:37;;;;;;;2.23;1.10;;;10.90;99.90;;;;;;5034248;28;20416;-70
2023/11/02 03:10:07;;;;;;;1.47;1.13;;;10.90;99.90;;;;;;5035652;28;20405;-69
2023/11/02 03:12:36;;;;;;;2.37;1.30;;;11.10;99.90;;;;;;5035351;28;20442;-70
2023/11/02 03:15:08;;;;;;;1.57;1.47;;;11.10;99.90;;;;;;5035679;28;20421;-70
2023/11/02 03:17:55;;;;;;;1.90;1.60;;;11.00;99.90;;;;;;5035758;28;20421;-71
2023/11/02 03:20:21;;;;;;;1.80;1.60;;;11.00;99.90;;;;;;5015995;28;20390;-71
2023/11/02 03:22:48;;;;;;;2.27;1.60;;;11.00;99.90;;;;;;5015771;28;21064;-71
2023/11/02 03:25:29;;;;;;;1.53;1.33;;;10.90;99.90;;;;;;5015924;28;20897;-70
2023/11/02 03:28:09;;;;;;;2.13;1.70;;;11.00;99.90;;;;;;5016177;28;20398;-71
2023/11/02 03:31:11;;;;;;;2.27;1.50;;;11.20;99.90;;;;;;5015823;28;20745;-71
2023/11/02 03:34:08;;;;;;;2.93;1.60;;;11.00;99.90;;;;;;4978788;28;20421;-70
2023/11/02 03:36:52;;;;;;;3.17;1.37;;;11.10;99.90;;;;;;4912308;28;20424;-71
2023/11/02 03:39:51;;;;;;;3.10;1.73;;;11.30;99.90;;;;;;5026799;28;20408;-71
2023/11/02 03:42:30;;;;;;;2.13;1.30;;;11.10;99.90;;;;;;5017573;28;20430;-71
2023/11/02 03:45:08;;;;;;;3.17;1.70;;;11.00;99.90;;;;;;5035558;28;20960;-70
2023/11/02 03:47:54;;;;;;;2.47;1.30;;;11.10;99.90;;;;;;5035429;28;20382;-71
2023/11/02 03:50:50;;;;;;;1.20;1.10;;;11.20;99.90;;;;;;5035347;28;20757;-70
2023/11/02 03:53:36;;;;;;;1.93;1.73;;;11.20;99.90;;;;;;5035667;28;20546;-71
2023/11/02 03:56:21;;;;;;;1.50;1.27;;;11.30;99.90;;;;;;5034903;28;20806;-70
2023/11/02 03:58:52;;;;;;;1.53;1.30;;;11.40;99.90;;;;;;5034663;28;20413;-71
2023/11/02 04:01:44;;;;;;;2.23;1.60;;;11.40;99.90;;;;;;5034523;28;20516;-71
2023/11/02 04:04:22;;;;;;;2.57;1.60;;;11.20;99.90;;;;;;4997238;28;20553;-70
2023/11/02 04:06:55;;;;;;;1.40;1.13;;;11.20;99.90;;;;;;5034928;28;20757;-71
2023/11/02 04:09:21;;;;;;;2.23;1.70;;;11.00;99.90;;;;;;5017465;28;20409;-70
2023/11/02 04:11:57;;;;;;;1.90;1.57;;;10.90;99.90;;;;;;5016657;28;20438;-70
2023/11/02 04:14:25;;;;;;;2.00;1.60;;;10.90;99.90;;;;;;5034347;28;20392;-70
2023/11/02 04:16:50;;;;;;;1.63;1.43;;;10.90;99.90;;;;;;5034373;28;20463;-70
2023/11/02 04:19:16;;;;;;;1.73;1.47;;;10.90;99.90;;;;;;5033468;28;20426;-71
2023/11/02 04:21:43;;;;;;;2.83;1.80;;;10.90;99.90;;;;;;5033992;28;20210;-71
2023/11/02 04:24:08;;;;;;;2.87;1.53;;;10.80;99.90;;;;;;5034413;28;20309;-70
2023/11/02 04:26:35;;;;;;;2.20;1.40;;;10.80;99.90;;;;;;5034518;28;20470;-71
2023/11/02 04:29:00;;;;;;;1.87;1.60;;;10.80;99.90;;;;;;5034240;28;20174;-71
2023/11/02 04:31:26;;;;;;;2.60;1.70;;;10.90;99.90;;;;;;5034150;28;20444;-71
2023/11/02 04:33:52;;;;;;;2.07;1.50;;;10.80;99.90;;;;;;5034980;28;20233;-70
2023/11/02 04:36:17;;;;;;;1.57;1.37;;;10.80;99.90;;;;;;5034390;28;20559;-70
2023/11/02 04:38:43;;;;;;;1.60;1.50;;;10.90;99.90;;;;;;5034075;28;20180;-70
2023/11/02 04:41:09;;;;;;;1.30;1.17;;;10.90;99.90;;;;;;5034110;28;20529;-70
2023/11/02 04:43:34;;;;;;;2.10;1.50;;;10.90;99.90;;;;;;5033986;28;20799;-70
2023/11/02 04:46:00;;;;;;;1.50;1.40;;;10.90;99.90;;;;;;5015476;28;20410;-71
2023/11/02 04:48:26;;;;;;;1.50;1.20;;;11.00;99.90;;;;;;5033877;28;20532;-71
2023/11/02 04:50:58;;;;;;;1.80;1.37;;;11.00;99.90;;;;;;5033952;28;20406;-72
2023/11/02 04:53:24;;;;;;;1.87;1.40;;;11.10;99.90;;;;;;5034217;28;20580;-69
2023/11/02 04:55:50;;;;;;;2.07;1.10;;;11.00;99.90;;;;;;5016196;28;20504;-71
2023/11/02 04:58:15;;;;;;;1.73;1.40;;;11.00;99.90;;;;;;5033999;28;20444;-70
2023/11/02 05:00:41;;;;;;;1.80;1.50;;;11.10;99.90;;;;;;5033905;28;20278;-71
2023/11/02 05:03:06;;;;;;;1.50;1.40;;;11.30;99.90;;;;;;5033515;28;20187;-70
2023/11/02 05:05:32;;;;;;;1.80;1.53;;;11.30;99.90;;;;;;5033572;28;20526;-71
2023/11/02 05:07:58;;;;;;;1.30;1.20;;;11.20;99.90;;;;;;5033502;28;20215;-70
2023/11/02 05:10:24;;;;;;;1.50;1.00;;;11.10;99.90;;;;;;5033648;28;20496;-70
2023/11/02 05:12:49;;;;;;;1.30;1.20;;;11.00;99.90;;;;;;5033553;28;20249;-71
2023/11/02 05:15:15;;;;;;;1.50;1.40;;;11.10;99.90;;;;;;5033324;28;20167;-70
2023/11/02 05:17:41;;;;;;;2.07;1.03;;;11.20;99.90;;;;;;5033514;28;20195;-71
2023/11/02 05:20:07;;;;;;;1.40;1.23;;;11.10;99.90;;;;;;5032909;28;20813;-70
2023/11/02 05:22:33;;;;;;;7.97;1.33;;;11.20;99.90;;;;;;5015300;28;20271;-70
2023/11/02 05:24:58;;;;;;;2.67;1.33;;;11.20;99.90;;;;;;5033194;28;20450;-71
2023/11/02 05:27:25;;;;;;;1.67;1.57;;;11.20;99.90;;;;;;5033168;28;20249;-70
2023/11/02 05:29:50;;;;;;;1.73;1.07;;;11.20;99.90;;;;;;5033005;28;20159;-71
2023/11/02 05:32:17;;;;;;;2.10;1.70;;;11.20;99.90;;;;;;5033463;28;20437;-70
2023/11/02 05:34:43;;;;;;;1.50;1.20;;;11.20;99.90;;;;;;5033363;28;20171;-71
2023/11/02 05:37:08;;;;;;;2.40;1.50;;;11.20;99.90;;;;;;5033190;28;20771;-70
2023/11/02 05:39:34;;;;;;;1.63;1.30;;;11.20;99.90;;;;;;5032780;28;20411;-70
2023/11/02 05:42:00;;;;;;;1.77;1.30;;;11.30;99.90;;;;;;5015077;28;20664;-70
2023/11/02 05:44:25;;;;;;;1.67;1.50;;;11.40;99.90;;;;;;5032811;28;20194;-70
2023/11/02 05:46:52;;;;;;;3.50;1.10;;;11.40;99.90;;;;;;5033201;28;20167;-71
2023/11/02 05:49:18;;;;;;;1.40;1.30;;;11.30;99.90;;;;;;5032958;28;20531;-70
2023/11/02 05:51:44;;;;;;;5.07;2.17;;;11.40;99.90;;;;;;5032697;28;20425;-71
2023/11/02 05:54:09;;;;;;;1.80;1.20;;;11.60;99.90;;;;;;5032764;28;20219;-70
2023/11/02 05:56:35;;;;;;;1.93;1.20;;;11.50;99.90;;;;;;5032592;28;20701;-70
2023/11/02 05:59:01;;;;;;;2.63;1.30;;;11.60;99.90;;;;;;5032668;28;20180;-70
2023/11/02 06:01:26;;;;;;;2.30;1.10;;;11.60;99.90;;;;;;5032458;28;20573;-70
2023/11/02 06:04:10;;;;;;;1.30;0.87;;;11.70;99.90;;;;;;5032578;28;20243;-72
2023/11/02 06:06:35;;;;;;;2.23;1.30;;;11.90;99.90;;;;;;5032166;28;20163;-70
2023/11/02 06:09:02;;;;;;;1.60;1.23;;;12.20;99.90;;;;;;5032793;28;20437;-70
2023/11/02 06:11:28;;;;;;;1.17;1.07;;;12.30;99.90;;;;;;5032464;28;20179;-71
2023/11/02 06:13:54;;;;;;;1.40;1.03;;;12.20;99.90;;;;;;5032516;28;20864;-70
2023/11/02 06:16:20;;;;;;;2.10;1.30;;;12.20;99.90;;;;;;5032511;28;20409;-70
2023/11/02 06:18:46;;;;;;;2.90;1.47;;;11.90;99.90;;;;;;5032553;28;20175;-71
2023/11/02 06:21:11;;;;;;;2.77;1.53;;;12.00;99.90;;;;;;5032151;28;20452;-70
2023/11/02 06:23:37;;;;;;;1.40;1.30;;;11.90;99.90;;;;;;5032401;28;20526;-70
2023/11/02 06:26:03;;;;;;;2.20;1.70;;;11.70;99.90;;;;;;5032252;28;20652;-70
2023/11/02 06:28:29;;;;;;;1.83;1.30;;;11.50;99.90;;;;;;5014617;28;20167;-70
2023/11/02 06:30:55;;;;;;;2.50;1.40;;;11.40;99.90;;;;;;5032856;28;20429;-71
2023/11/02 06:33:27;;;;;;;4.63;1.57;;;11.40;99.90;;;;;;5032991;28;20195;-70
2023/11/02 06:35:52;;;;;;;3.00;1.90;;;11.50;99.90;;;;;;5032647;28;20595;-71
2023/11/02 06:38:21;;;;;;;3.83;1.70;;;11.50;99.90;;;;;;5032282;28;20438;-71
2023/11/02 06:40:47;;;;;;;2.43;1.57;;;11.50;99.90;;;;;;5014493;28;20171;-72
2023/11/02 06:43:13;;;;;;;2.83;1.40;;;11.60;99.90;;;;;;5038076;28;20449;-71
2023/11/02 06:45:38;;;;;;;1.67;1.57;;;11.60;99.90;;;;;;5038589;28;20402;-71
2023/11/02 06:48:04;;;;;;;3.43;1.90;;;11.60;99.90;;;;;;5038656;28;20175;-71
2023/11/02 06:50:30;;;;;;;3.00;2.03;;;11.30;99.90;;;;;;5038650;28;20603;-70
2023/11/02 06:52:55;;;;;;;5.33;2.10;;;11.10;99.90;;;;;;5038669;28;20555;-71
2023/11/02 06:55:21;;;;;;;3.07;2.13;;;11.20;99.90;;;;;;5038051;28;20206;-70
2023/11/02 06:57:47;;;;;;;3.53;2.10;;;11.30;99.90;;;;;;5038532;28;20656;-71
2023/11/02 07:00:14;;;;;;;2.20;2.00;;;11.40;99.90;;;;;;5020968;28;20232;-71
2023/11/02 07:02:40;;;;;;;4.80;2.70;;;11.50;99.90;;;;;;5020815;28;20222;-71
2023/11/02 07:05:06;;;;;;;2.93;1.70;;;11.50;99.90;;;;;;5038683;28;20526;-70
2023/11/02 07:07:35;;;;;;;2.57;2.37;;;11.50;99.90;;;;;;5039000;28;20212;-71
2023/11/02 07:10:04;;;;;;;2.00;1.80;;;11.40;99.90;;;;;;5038853;28;20405;-71
2023/11/02 07:12:30;;;;;;;2.13;1.67;;;11.50;99.90;;;;;;5020651;28;20931;-70
2023/11/02 07:14:55;;;;;;;3.73;1.70;;;11.50;99.90;;;;;;5039349;28;20410;-71
2023/11/02 07:17:22;;;;;;;2.33;1.70;;;11.50;99.90;;;;;;5038359;28;20490;-70
2023/11/02 07:19:47;;;;;;;2.60;1.77;;;11.50;99.90;;;;;;5038256;28;20187;-71
2023/11/02 07:22:13;;;;;;;2.63;1.57;;;11.60;99.90;;;;;;5038293;28;20969;-71
2023/11/02 07:24:39;;;;;;;2.40;2.17;;;11.60;99.90;;;;;;5038269;28;20277;-71
2023/11/02 07:27:07;;;;;;;2.90;1.50;;;11.50;99.90;;;;;;5020394;28;20504;-70
2023/11/02 07:29:33;;;;;;;3.97;2.10;;;11.50;99.90;;;;;;5038206;28;20336;-71
2023/11/02 07:31:58;;;;;;;2.50;1.90;;;11.30;99.90;;;;;;5038125;28;20484;-72
2023/11/02 07:34:24;;;;;;;3.50;2.20;;;11.30;99.90;;;;;;5039311;28;20189;-72
2023/11/02 07:36:50;;;;;;;2.10;1.60;;;11.40;99.90;;;;;;5038311;28;20637;-72
2023/11/02 07:39:16;;;;;;;1.67;1.40;;;11.40;99.90;;;;;;5037972;28;20174;-71
2023/11/02 07:41:42;;;;;;;1.90;1.67;;;11.30;99.90;;;;;;5038300;28;20425;-70
2023/11/02 07:44:07;;;;;;;2.60;1.20;;;11.40;99.90;;;;;;5038037;28;20282;-70
2023/11/02 07:46:33;;;;;;;1.50;1.40;;;11.40;99.90;;;;;;5038489;28;20175;-71
2023/11/02 07:48:59;;;;;;;2.07;1.50;;;11.40;99.90;;;;;;5038193;28;20197;-71
2023/11/02 07:51:24;;;;;;;1.50;1.40;;;11.40;99.90;;;;;;5038646;28;20228;-71
2023/11/02 07:53:50;;;;;;;1.90;1.30;;;11.30;99.90;;;;;;5036015;28;20171;-71
2023/11/02 07:56:15;;;;;;;3.90;1.40;;;11.30;99.90;;;;;;5035126;28;20175;-71
2023/11/02 07:58:42;;;;;;;2.37;1.90;;;11.20;99.90;;;;;;5034797;28;20261;-71
2023/11/02 08:01:09;;;;;;;2.10;1.77;;;11.30;99.90;;;;;;5034688;28;20623;-71
2023/11/02 08:03:34;;;;;;;3.03;1.60;;;11.40;99.90;;;;;;5035026;28;20460;-71
2023/11/02 08:06:01;;;;;;;1.77;1.53;;;11.40;99.90;;;;;;5017177;28;20490;-72
2023/11/02 08:08:27;;;;;;;2.23;1.57;;;11.40;99.90;;;;;;5034771;28;20172;-74
2023/11/02 08:10:52;;;;;;;2.00;1.80;;;11.30;99.90;;;;;;5034580;28;20405;-75
2023/11/02 08:13:18;;;;;;;3.97;2.30;;;11.30;99.90;;;;;;5017012;28;20513;-74
2023/11/02 08:15:44;;;;;;;1.77;1.67;;;11.40;99.90;;;;;;5034943;28;20198;-72
2023/11/02 08:18:09;;;;;;;2.87;1.37;;;11.40;99.90;;;;;;5034673;28;20718;-75
2023/11/02 08:20:35;;;;;;;2.00;1.47;;;11.40;99.90;;;;;;5034544;28;20171;-75
2023/11/02 08:23:01;;;;;;;2.07;1.30;;;11.50;99.90;;;;;;5034964;28;20249;-73
2023/11/02 08:25:26;;;;;;;2.03;1.70;;;11.50;99.90;;;;;;5034783;28;20195;-74
2023/11/02 08:27:57;;;;;;;2.10;1.80;;;11.40;99.90;;;;;;5034522;28;20163;-72
2023/11/02 08:30:23;;;;;;;4.07;1.53;;;11.40;99.90;;;;;;5034550;28;20676;-75
2023/11/02 08:32:51;;;;;;;3.40;1.60;;;11.50;99.90;;;;;;5016494;28;21004;-75
2023/11/02 08:35:21;;;;;;;1.80;1.60;;;11.50;99.90;;;;;;5034606;28;20428;-76
2023/11/02 08:37:47;;;;;;;1.70;1.60;;;11.50;99.90;;;;;;5034341;28;20406;-76
2023/11/02 08:40:13;;;;;;;2.17;1.53;;;11.30;99.90;;;;;;5034236;28;20418;-76
2023/11/02 08:42:40;;;;;;;1.83;1.60;;;11.20;99.90;;;;;;5034812;28;20962;-73
2023/11/02 08:45:06;;;;;;;2.40;1.53;;;11.20;99.90;;;;;;5034286;28;20187;-72
2023/11/02 08:47:32;;;;;;;1.57;1.33;;;11.20;99.90;;;;;;5034288;28;20444;-74
2023/11/02 08:49:57;;;;;;;2.50;1.80;;;11.10;99.90;;;;;;5034342;28;20404;-74
2023/11/02 08:52:23;;;;;;;3.80;2.00;;;11.10;99.90;;;;;;5034594;28;20230;-73
2023/11/02 08:54:50;;;;;;;3.70;2.20;;;11.10;99.90;;;;;;5034363;28;20190;-75
2023/11/02 08:57:15;;;;;;;2.40;2.20;;;11.10;99.90;;;;;;5034064;28;20179;-74
2023/11/02 08:59:41;;;;;;;2.17;1.97;;;11.10;99.90;;;;;;5034145;28;20409;-70
2023/11/02 09:02:06;;;;;;;1.97;1.63;;;11.20;99.90;;;;;;5033946;28;20188;-73
2023/11/02 09:04:32;;;;;;;2.30;1.97;;;11.20;99.90;;;;;;5033807;28;20195;-73
2023/11/02 09:06:58;;;;;;;2.87;2.47;;;11.30;99.90;;;;;;5033691;28;20575;-74
2023/11/02 09:09:24;;;;;;;3.27;2.07;;;11.30;99.90;;;;;;5015927;28;20465;-73
2023/11/02 09:11:50;;;;;;;2.87;2.20;;;11.40;99.90;;;;;;5033732;28;20422;-73
2023/11/02 09:14:16;;;;;;;3.60;2.10;;;11.50;99.90;;;;;;5033964;28;20174;-73
2023/11/02 09:16:42;;;;;;;2.30;2.10;;;11.30;99.90;;;;;;5033912;28;20868;-73
2023/11/02 09:19:08;;;;;;;3.63;2.13;;;11.50;99.90;;;;;;5033888;28;20430;-70
2023/11/02 09:21:40;;;;;;;3.93;3.47;;;11.80;99.90;;;;;;5034018;28;20217;-72
2023/11/02 09:24:06;;;;;;;4.80;2.53;;;11.90;99.90;;;;;;5033911;28;20183;-70
2023/11/02 09:26:32;;;;;;;2.20;2.00;;;12.10;99.90;;;;;;5033582;28;20434;-71
2023/11/02 09:28:58;;;;;;;2.97;2.50;;;11.90;99.90;;;;;;5033858;28;20413;-72
2023/11/02 09:31:28;;;;;;;3.30;2.57;;;11.90;99.90;;;;;;5033513;28;20573;-72
2023/11/02 09:33:53;;;;;;;3.23;2.50;;;11.90;99.90;;;;;;5033888;28;20184;-72
2023/11/02 09:36:19;;;;;;;3.87;2.47;;;11.90;99.90;;;;;;5033486;28;20414;-72
2023/11/02 09:38:45;;;;;;;5.10;2.47;;;11.70;99.90;;;;;;5033491;28;20175;-74
2023/11/02 09:41:10;;;;;;;2.97;2.27;;;11.80;99.90;;;;;;5033742;28;20198;-71
2023/11/02 09:43:39;;;;;;;5.40;2.50;;;12.00;99.90;;;;;;5033535;28;20518;-73
2023/11/02 09:46:05;;;;;;;3.13;1.50;;;11.90;99.90;;;;;;5033688;28;20174;-71
2023/11/02 09:48:30;;;;;;;3.70;2.07;;;12.20;99.90;;;;;;5033746;28;20859;-73
2023/11/02 09:50:58;;;;;;;2.30;2.03;;;12.30;99.90;;;;;;5033230;28;20514;-72
2023/11/02 09:53:24;;;;;;;4.10;2.10;;;12.40;99.90;;;;;;5033667;28;20168;-71
2023/11/02 09:55:50;;;;;;;4.13;2.40;;;12.50;99.90;;;;;;5033236;28;20410;-71
2023/11/02 09:58:17;;;;;;;3.43;2.60;;;12.50;99.90;;;;;;5033086;28;20186;-72
2023/11/02 10:00:45;;;;;;;3.33;2.30;;;12.50;99.90;;;;;;5032938;28;20423;-71
2023/11/02 10:03:11;;;;;;;3.70;1.93;;;12.40;99.90;;;;;;5032892;28;20422;-72
2023/11/02 10:05:37;;;;;;;2.80;1.97;;;12.40;99.90;;;;;;5033193;28;20402;-73
2023/11/02 10:08:02;;;;;;;2.37;1.37;;;12.40;99.90;;;;;;5032896;28;20188;-72
2023/11/02 10:10:32;;;;;;;2.30;1.50;;;12.30;99.90;;;;;;5032849;28;20169;-71
2023/11/02 10:13:02;;;;;;;2.87;1.70;;;12.30;99.90;;;;;;5032768;28;20185;-73
2023/11/02 10:15:30;;;;;;;2.40;1.47;;;12.30;99.90;;;;;;5014888;28;20975;-72
2023/11/02 10:17:56;;;;;;;1.33;1.07;;;12.30;99.90;;;;;;5032103;28;20414;-70
2023/11/02 10:20:22;;;;;;;1.27;1.10;;;12.40;99.90;;;;;;5032736;28;20496;-70
2023/11/02 10:22:58;;;;;;;1.70;1.30;;;12.60;99.90;;;;;;5032583;28;20455;-72
2023/11/02 10:25:23;;;;;;;1.70;1.20;;;12.50;99.90;;;;;;5032684;28;20964;-71
2023/11/02 10:27:50;;;;;;;1.33;1.17;;;12.50;99.90;;;;;;5033159;28;20413;-73
2023/11/02 10:30:17;;;;;;;2.03;1.10;;;12.50;99.90;;;;;;5032681;28;20533;-73
2023/11/02 10:32:43;;;;;;;1.30;0.90;;;12.50;99.90;;;;;;5014749;28;20441;-72
2023/11/02 10:35:09;;;;;;;1.67;1.20;;;12.60;99.90;;;;;;5032510;28;20402;-73
2023/11/02 10:37:36;;;;;;;1.60;1.10;;;12.50;99.90;;;;;;5032821;28;20784;-73
2023/11/02 10:40:03;;;;;;;1.00;0.70;;;12.50;99.90;;;;;;5032567;28;20430;-73
2023/11/02 10:42:29;;;;;;;1.27;0.80;;;12.60;99.90;;;;;;5032752;28;20947;-74
2023/11/02 10:44:56;;;;;;;1.80;0.83;;;12.70;99.90;;;;;;5032711;28;20452;-73
2023/11/02 10:47:34;;;;;;;1.50;0.87;;;12.70;99.90;;;;;;5032786;28;20199;-75
2023/11/02 10:50:01;;;;;;;1.00;0.70;;;12.70;99.90;;;;;;5032585;28;20430;-73
2023/11/02 10:52:29;;;;;;;1.13;1.03;;;12.90;99.90;;;;;;5032149;28;20418;-73
2023/11/02 10:55:07;;;;;;;1.10;0.77;;;12.90;99.90;;;;;;5032374;28;20442;-73
2023/11/02 10:57:35;;;;;;;2.70;0.90;;;12.90;99.90;;;;;;5032406;28;20766;-73
2023/11/02 11:00:04;;;;;;;1.80;0.80;;;12.80;99.90;;;;;;5032371;28;20470;-74
2023/11/02 11:02:30;;;;;;;0.90;0.67;;;12.70;99.90;;;;;;5032270;28;20478;-73
2023/11/02 11:04:57;;;;;;;1.10;0.60;;;12.70;99.90;;;;;;5032321;28;20446;-74
2023/11/02 11:07:23;;;;;;;0.90;0.70;;;12.60;99.90;;;;;;5031826;28;20400;-71
2023/11/02 11:09:50;;;;;;;1.20;0.90;;;12.70;99.90;;;;;;5032273;28;20778;-73
2023/11/02 11:12:20;;;;;;;3.70;1.00;;;12.70;99.90;;;;;;5031675;28;20434;-73
2023/11/02 11:14:47;;;;;;;1.00;0.90;;;12.70;99.90;;;;;;5032446;28;20411;-71
2023/11/02 11:17:13;;;;;;;2.20;0.90;;;12.60;99.90;;;;;;5032196;28;20825;-73
2023/11/02 11:19:39;;;;;;;1.87;0.87;;;12.70;99.90;;;;;;5032078;28;20492;-73
2023/11/02 11:22:15;;;;;;;1.13;0.60;;;12.60;99.90;;;;;;5032040;28;20234;-73
2023/11/02 11:24:44;;;;;;;1.33;0.60;;;12.70;99.90;;;;;;5032358;28;20469;-72
2023/11/02 11:27:10;;;;;;;2.40;0.70;;;12.70;99.90;;;;;;5031960;28;20411;-75
2023/11/02 11:29:36;;;;;;;2.80;0.60;;;12.70;99.90;;;;;;5035669;28;20762;-73
2023/11/02 11:32:03;;;;;;;0.87;0.57;;;12.70;99.90;;;;;;5017794;28;20424;-71
2023/11/02 11:34:53;;;;;;;1.40;0.70;;;12.70;99.90;;;;;;5035361;28;20196;-74
2023/11/02 11:37:43;;;;;;;1.40;0.97;;;12.70;99.90;;;;;;5017932;28;20413;-74
2023/11/02 11:40:29;;;;;;;1.40;0.60;;;12.60;99.90;;;;;;5016045;28;20400;-74
2023/11/02 11:43:15;;;;;;;1.10;0.70;;;12.40;99.90;;;;;;4998748;28;20506;-72
2023/11/02 11:45:55;;;;;;;0.90;0.60;;;12.40;99.90;;;;;;5016091;28;20380;-75
2023/11/02 11:48:41;;;;;;;2.90;1.07;;;12.30;99.90;;;;;;5022256;28;20907;-73
2023/11/02 11:51:31;;;;;;;1.27;0.60;;;12.30;99.90;;;;;;5035837;28;20448;-73
2023/11/02 11:54:14;;;;;;;3.07;1.00;;;12.30;99.90;;;;;;5035519;28;20407;-74
2023/11/02 11:56:39;;;;;;;3.07;0.63;;;12.30;99.90;;;;;;5035705;28;20436;-75
2023/11/02 11:59:05;;;;;;;2.10;0.70;;;12.30;99.90;;;;;;5035476;28;20934;-73
2023/11/02 12:01:31;;;;;;;2.50;0.80;;;12.30;99.90;;;;;;5035107;28;20246;-72
2023/11/02 12:03:57;;;;;;;0.80;0.70;;;12.30;99.90;;;;;;5034944;28;20510;-73
2023/11/02 12:06:43;;;;;;;1.87;0.77;;;12.50;99.90;;;;;;5035091;28;20225;-74
2023/11/02 12:09:12;;;;;;;1.20;0.80;;;12.40;99.90;;;;;;5035003;28;20392;-73
2023/11/02 12:11:37;;;;;;;1.17;0.77;;;12.40;99.90;;;;;;5035908;28;20433;-74
2023/11/02 12:14:14;;;;;;;2.37;0.80;;;12.40;99.90;;;;;;5035070;28;20561;-72
2023/11/02 12:16:40;;;;;;;1.53;0.63;;;12.40;99.90;;;;;;5035384;28;20198;-75
2023/11/02 12:19:08;;;;;;;1.73;0.90;;;12.40;99.90;;;;;;5034900;28;20961;-76
2023/11/02 12:21:35;;;;;;;2.00;0.97;;;12.40;99.90;;;;;;5034609;28;20609;-76
2023/11/02 12:24:01;;;;;;;0.97;0.70;;;12.30;99.90;;;;;;5035024;28;20454;-74
2023/11/02 12:26:29;;;;;;;1.93;0.90;;;12.20;99.90;;;;;;5034845;28;20414;-75
2023/11/02 12:29:04;;;;;;;1.03;0.80;;;12.20;99.90;;;;;;5034604;28;20173;-74
2023/11/02 12:31:30;;;;;;;3.00;1.03;;;12.30;99.90;;;;;;5034860;28;20418;-71
2023/11/02 12:34:08;;;;;;;1.30;0.83;;;12.20;99.90;;;;;;5034822;28;20411;-72
2023/11/02 12:36:43;;;;;;;1.83;0.90;;;12.10;99.90;;;;;;5035101;28;20250;-72
2023/11/02 12:39:21;;;;;;;1.73;0.90;;;12.20;99.90;;;;;;5034051;28;20401;-69
2023/11/02 12:41:47;;;;;;;1.17;0.80;;;12.10;99.90;;;;;;5019058;28;20806;-69
2023/11/02 12:44:16;;;;;;;1.03;0.80;;;12.00;99.90;;;;;;5035169;28;20442;-69
2023/11/02 12:46:43;;;;;;;2.00;1.00;;;12.10;99.90;;;;;;5034918;28;20406;-70
2023/11/02 12:49:20;;;;;;;1.67;1.17;;;12.00;99.90;;;;;;5034626;28;20847;-71
2023/11/02 12:52:01;;;;;;;1.30;0.70;;;11.90;99.90;;;;;;5035209;28;20425;-72
2023/11/02 12:54:27;;;;;;;2.03;1.10;;;12.00;99.90;;;;;;5017517;28;20418;-72
2023/11/02 12:56:56;;;;;;;2.80;1.00;;;12.10;99.90;;;;;;5034298;28;20406;-72
2023/11/02 12:59:25;;;;;;;2.03;0.83;;;12.10;99.90;;;;;;5034176;28;20905;-73
2023/11/02 13:01:55;;;;;;;1.67;0.73;;;12.10;99.90;;;;;;5034565;28;20467;-72